Time;durP1;ratioP1;P1;durP2;ratioP2;P2;SDS_P1;SDS_P2;PMS_P1;PMS_P2;Temp;Humidity;BMP_temperature;BMP_pressure;BME280_temperature;BME280_humidity;BME280_pressure;Samples;Min_cycle;Max_cycle;Signal;HPM_P1;HPM_P2
2021/12/06 00:01:56;;;;;;;47.03;30.98;;;;;;;5.22;84.63;101104.31;7388141;19;20011;-62
2021/12/06 00:04:29;;;;;;;46.03;31.50;;;;;;;5.21;84.83;101103.44;7390796;19;20039;-57
2021/12/06 00:07:01;;;;;;;45.80;32.13;;;;;;;5.24;84.87;101113.78;7389625;19;20011;-60
2021/12/06 00:09:33;;;;;;;43.63;30.92;;;;;;;5.22;84.90;101115.56;7391343;19;20057;-57
2021/12/06 00:12:03;;;;;;;48.70;32.22;;;;;;;5.20;84.77;101122.50;7396985;19;20022;-58
2021/12/06 00:14:36;;;;;;;47.67;32.53;;;;;;;5.23;84.77;101124.19;7397565;19;20010;-62
2021/12/06 00:17:07;;;;;;;45.83;31.05;;;;;;;5.25;84.88;101127.66;7394571;19;20337;-58
2021/12/06 00:19:37;;;;;;;49.65;32.85;;;;;;;5.27;84.84;101144.06;7397431;19;20066;-59
2021/12/06 00:22:11;;;;;;;47.78;32.95;;;;;;;5.27;84.95;101138.84;7394437;19;20039;-60
2021/12/06 00:24:42;;;;;;;53.28;33.20;;;;;;;5.31;85.07;101143.13;7397830;19;20007;-55
2021/12/06 00:27:11;;;;;;;47.63;32.30;;;;;;;5.32;85.28;101142.25;7397103;19;20487;-58
2021/12/06 00:29:40;;;;;;;50.30;34.22;;;;;;;5.32;85.26;101153.47;7397793;19;20549;-61
2021/12/06 00:32:10;;;;;;;49.88;33.88;;;;;;;5.31;85.51;101145.72;7394147;19;20015;-58
2021/12/06 00:34:40;;;;;;;51.10;34.05;;;;;;;5.28;85.41;101153.56;7394459;19;20463;-58
2021/12/06 00:37:21;;;;;;;49.15;32.33;;;;;;;5.27;85.45;101146.66;7393088;19;20111;-58
2021/12/06 00:39:55;;;;;;;49.13;34.08;;;;;;;5.25;85.39;101153.63;7397428;19;20022;-55
2021/12/06 00:42:27;;;;;;;53.08;35.20;;;;;;;5.21;85.14;101152.81;7395538;19;20010;-55
2021/12/06 00:44:57;;;;;;;54.90;36.60;;;;;;;5.19;85.40;101146.78;7394434;19;20010;-57
2021/12/06 00:47:26;;;;;;;56.63;35.35;;;;;;;5.19;85.62;101158.03;7395529;19;20018;-54
2021/12/06 00:49:55;;;;;;;58.00;37.17;;;;;;;5.14;85.24;101159.88;7393447;19;20473;-59
2021/12/06 00:52:25;;;;;;;58.13;37.45;;;;;;;5.14;85.25;101162.47;7393807;19;20018;-60
2021/12/06 00:54:57;;;;;;;55.70;35.17;;;;;;;5.13;85.39;101178.03;7393673;19;20344;-58
2021/12/06 00:57:26;;;;;;;56.00;36.05;;;;;;;5.16;85.37;101186.66;7394853;19;20032;-58
2021/12/06 00:59:55;;;;;;;60.72;37.60;;;;;;;5.13;85.30;101181.50;7396647;19;20157;-61
2021/12/06 01:02:24;;;;;;;57.80;37.47;;;;;;;5.14;85.22;101178.03;7394053;19;20014;-57
2021/12/06 01:04:54;;;;;;;57.10;36.38;;;;;;;5.10;85.35;101178.97;7396731;19;20018;-60
2021/12/06 01:07:23;;;;;;;64.25;38.30;;;;;;;5.08;85.29;101183.31;7392823;19;20352;-60
2021/12/06 01:09:52;;;;;;;60.15;37.17;;;;;;;5.10;85.52;101188.47;7396172;19;20010;-58
2021/12/06 01:12:23;;;;;;;58.90;37.42;;;;;;;5.06;85.63;101192.00;7394171;19;20049;-59
2021/12/06 01:14:52;;;;;;;59.95;38.28;;;;;;;5.07;85.72;101194.56;7396391;19;20033;-57
2021/12/06 01:17:21;;;;;;;60.78;37.70;;;;;;;5.09;85.79;101197.19;7393261;19;20019;-57
2021/12/06 01:19:51;;;;;;;63.13;37.58;;;;;;;5.10;85.91;101198.88;7393330;19;20026;-56
2021/12/06 01:22:27;;;;;;;59.92;37.30;;;;;;;5.11;85.76;101206.63;7393475;19;20026;-60
2021/12/06 01:25:01;;;;;;;61.38;38.47;;;;;;;5.10;85.74;101209.25;7396939;19;20094;-59
2021/12/06 01:27:48;;;;;;;63.95;38.35;;;;;;;5.10;85.95;101210.16;7393284;19;20045;-56
2021/12/06 01:30:33;;;;;;;66.97;39.55;;;;;;;5.13;85.91;101224.81;7396972;19;20344;-55
2021/12/06 01:41:13;;;;;;;66.70;38.40;;;;;;;5.24;86.14;101233.28;7395377;19;20019;-59
2021/12/06 01:44:10;;;;;;;61.50;38.13;;;;;;;5.27;86.17;101233.28;7395017;19;20007;-55
2021/12/06 01:46:42;;;;;;;69.25;39.28;;;;;;;5.27;86.39;101229.78;7391743;19;20014;-57
2021/12/06 01:49:12;;;;;;;69.97;40.50;;;;;;;5.24;86.00;101224.66;7392787;19;20015;-57
2021/12/06 01:51:41;;;;;;;67.78;39.75;;;;;;;5.22;86.09;101229.03;7393190;19;20136;-62
2021/12/06 01:54:12;;;;;;;75.68;41.10;;;;;;;5.17;85.79;101229.94;7394090;19;20366;-57
2021/12/06 01:56:41;;;;;;;68.57;40.90;;;;;;;5.19;85.90;101232.53;7390907;19;20011;-58
2021/12/06 01:59:14;;;;;;;71.88;40.38;;;;;;;5.22;86.07;101234.22;7393925;19;20014;-57
2021/12/06 02:01:43;;;;;;;;;;;;;;;5.19;85.90;101238.56;7394409;19;20057;-57
2021/12/06 02:04:13;;;;;;;70.95;40.22;;;;;;;5.20;86.23;101237.69;7391835;19;19930;-54
2021/12/06 02:06:43;;;;;;;70.18;40.05;;;;;;;5.24;86.17;101229.84;7393451;19;20014;-58
2021/12/06 02:09:16;;;;;;;74.88;42.42;;;;;;;5.24;86.18;101243.69;7393708;19;20014;-60
2021/12/06 02:11:45;;;;;;;75.93;43.75;;;;;;;5.25;86.06;101239.38;7392359;19;20360;-57
2021/12/06 02:14:29;;;;;;;76.20;43.30;;;;;;;5.25;85.74;101240.22;7391666;19;20103;-57
2021/12/06 02:17:09;;;;;;;77.28;42.65;;;;;;;5.27;85.54;101247.97;7390862;19;20021;-59
2021/12/06 02:19:43;;;;;;;69.57;41.22;;;;;;;5.31;85.71;101244.47;7394203;19;20015;-59
2021/12/06 02:22:17;;;;;;;75.28;41.80;;;;;;;5.33;85.53;101248.75;7393011;19;20089;-60
2021/12/06 02:24:47;;;;;;;78.82;42.95;;;;;;;5.33;85.67;101250.47;7393650;19;20018;-59
2021/12/06 02:27:17;;;;;;;75.25;43.60;;;;;;;5.26;85.30;101239.34;7393261;19;20014;-61
2021/12/06 02:29:49;;;;;;;85.88;43.40;;;;;;;5.24;85.30;101246.28;7393615;19;20018;-58
2021/12/06 02:32:18;;;;;;;77.47;42.40;;;;;;;5.23;85.44;101241.09;7390500;19;20094;-64
2021/12/06 02:34:50;;;;;;;75.95;41.63;;;;;;;5.24;85.38;101245.44;7395412;19;20332;-63
2021/12/06 02:37:24;;;;;;;83.70;43.22;;;;;;;5.23;85.58;101247.19;7390337;19;20107;-63
2021/12/06 02:39:54;;;;;;;82.32;43.78;;;;;;;5.19;85.41;101253.31;7391528;19;20082;-63
2021/12/06 02:42:24;;;;;;;81.15;42.75;;;;;;;5.19;85.52;101253.31;7390259;19;20054;-57
2021/12/06 02:44:53;;;;;;;77.95;41.65;;;;;;;5.20;85.67;101262.78;7391071;19;20483;-61
2021/12/06 02:47:23;;;;;;;76.82;42.13;;;;;;;5.22;85.58;101258.44;7390309;19;20487;-61
2021/12/06 02:49:52;;;;;;;81.15;44.85;;;;;;;5.20;85.51;101262.78;7391008;19;20017;-61
2021/12/06 02:52:23;;;;;;;75.10;42.78;;;;;;;5.19;85.41;101271.50;7389334;19;20078;-55
2021/12/06 02:54:56;;;;;;;83.55;43.92;;;;;;;5.16;85.32;101274.13;7388833;19;20021;-63
2021/12/06 02:57:33;;;;;;;79.82;43.47;;;;;;;5.15;85.12;101270.66;7389103;19;20483;-61
2021/12/06 03:00:05;;;;;;;79.72;43.90;;;;;;;5.16;84.88;101271.53;7389958;19;20109;-63
2021/12/06 03:02:34;;;;;;;74.85;42.35;;;;;;;5.16;85.08;101277.59;7388694;19;20010;-56
2021/12/06 03:05:03;;;;;;;79.43;44.05;;;;;;;5.15;84.97;101278.44;7390167;19;20033;-57
2021/12/06 03:07:36;;;;;;;78.72;43.00;;;;;;;5.13;85.09;101275.03;7388887;19;20018;-62
2021/12/06 03:10:07;;;;;;;75.28;42.40;;;;;;;5.16;84.89;101279.34;7389851;19;20018;-60
2021/12/06 03:12:36;;;;;;;73.80;41.67;;;;;;;5.17;84.98;101276.72;7388976;19;20471;-63
2021/12/06 03:15:07;;;;;;;80.55;44.85;;;;;;;5.20;85.03;101279.25;7390062;19;20021;-58
2021/12/06 03:17:37;;;;;;;81.15;43.80;;;;;;;5.19;84.97;101274.94;7388658;19;20029;-57
2021/12/06 03:20:13;;;;;;;77.35;42.53;;;;;;;5.23;85.01;101283.56;7389644;19;20018;-60
2021/12/06 03:22:47;;;;;;;84.95;44.13;;;;;;;5.26;85.16;101291.31;7388481;19;20010;-56
2021/12/06 03:25:19;;;;;;;80.00;43.25;;;;;;;5.29;85.23;101285.22;7389274;19;20014;-59
2021/12/06 03:27:49;;;;;;;79.53;43.10;;;;;;;5.28;85.04;101283.47;7388836;19;20018;-56
2021/12/06 03:30:18;;;;;;;77.75;42.35;;;;;;;5.32;84.93;101285.16;7390343;19;20018;-61
2021/12/06 03:32:47;;;;;;;75.85;41.67;;;;;;;5.34;85.01;101289.47;7389592;19;20006;-57
2021/12/06 03:35:16;;;;;;;76.10;42.30;;;;;;;5.37;85.22;101299.81;7390003;19;20018;-57
2021/12/06 03:37:47;;;;;;;80.72;42.78;;;;;;;5.37;85.23;101302.41;7388398;19;20025;-57
2021/12/06 03:40:16;;;;;;;81.00;43.17;;;;;;;5.37;85.16;101297.19;7389263;19;20014;-57
2021/12/06 03:42:45;;;;;;;76.15;43.42;;;;;;;5.37;85.08;101301.53;7388651;19;20015;-58
2021/12/06 03:45:15;;;;;;;81.30;44.60;;;;;;;5.37;85.01;101310.19;7387214;19;20028;-58
2021/12/06 03:47:44;;;;;;;81.38;44.40;;;;;;;5.37;84.95;101307.59;7388540;19;20099;-58
2021/12/06 03:50:13;;;;;;;84.78;45.25;;;;;;;5.38;84.93;101309.28;7388950;19;20006;-62
2021/12/06 03:52:42;;;;;;;80.55;43.42;;;;;;;5.39;84.70;101310.16;7388053;19;20022;-60
2021/12/06 03:55:15;;;;;;;82.40;43.83;;;;;;;5.34;84.56;101311.97;7386929;19;20021;-58
2021/12/06 03:57:44;;;;;;;;;;;;;;;5.32;84.53;101305.94;7386252;19;20018;-61
2021/12/06 04:00:14;;;;;;;77.20;41.55;;;;;;;5.27;84.60;101307.75;7388590;19;19925;-57
2021/12/06 04:02:45;;;;;;;79.93;42.80;;;;;;;5.29;84.92;101308.59;7387344;19;20674;-61
2021/12/06 04:05:14;;;;;;;80.00;42.65;;;;;;;5.30;85.26;101305.97;7389278;19;20088;-62
2021/12/06 04:07:43;;;;;;;80.82;43.85;;;;;;;5.31;85.12;101306.81;7387319;19;20100;-60
2021/12/06 04:10:15;;;;;;;84.35;43.55;;;;;;;5.33;85.51;101316.31;7388291;19;20015;-62
2021/12/06 04:12:44;;;;;;;82.97;44.25;;;;;;;5.30;85.24;101308.56;7387676;19;20010;-61
2021/12/06 04:15:15;;;;;;;79.80;43.25;;;;;;;5.26;84.90;101308.59;7388895;19;20021;-59
2021/12/06 04:17:44;;;;;;;88.75;44.95;;;;;;;5.20;84.83;101304.34;7386486;19;20026;-61
2021/12/06 04:20:14;;;;;;;84.45;45.53;;;;;;;5.17;84.74;101297.50;7387934;19;20620;-61
2021/12/06 04:22:43;;;;;;;91.47;46.70;;;;;;;5.14;84.67;101294.06;7386572;19;20027;-56
2021/12/06 04:25:17;;;;;;;83.60;43.90;;;;;;;5.14;84.63;101296.66;7387182;19;20024;-61
2021/12/06 04:27:51;;;;;;;83.80;43.42;;;;;;;5.12;84.60;101298.44;7386482;19;20015;-61
2021/12/06 04:30:22;;;;;;;85.53;43.78;;;;;;;5.13;85.07;101301.00;7387540;19;20030;-60
2021/12/06 04:32:52;;;;;;;79.10;42.33;;;;;;;5.16;84.99;101303.56;7385992;19;20102;-62
2021/12/06 04:35:21;;;;;;;79.53;41.65;;;;;;;5.19;85.41;101308.72;7387813;19;20027;-64
2021/12/06 04:37:50;;;;;;;86.53;43.78;;;;;;;5.20;85.18;101322.53;7385626;19;20011;-59
2021/12/06 04:40:22;;;;;;;84.00;44.25;;;;;;;5.19;85.05;101321.69;7387103;19;20015;-62
2021/12/06 04:42:51;;;;;;;82.72;43.25;;;;;;;5.17;84.99;101327.78;7386064;19;20014;-62
2021/12/06 04:45:20;;;;;;;81.90;43.35;;;;;;;5.18;84.97;101325.16;7387278;19;20018;-61
2021/12/06 04:47:50;;;;;;;83.20;43.25;;;;;;;5.17;85.01;101323.47;7386563;19;20021;-64
2021/12/06 04:50:23;;;;;;;86.13;45.63;;;;;;;5.19;85.00;101326.03;7387250;19;20384;-62
2021/12/06 04:52:52;;;;;;;87.40;44.65;;;;;;;5.18;84.73;101321.72;7385640;19;20736;-61
2021/12/06 04:55:27;;;;;;;90.35;46.25;;;;;;;5.17;85.03;101320.88;7389601;19;20349;-61
2021/12/06 04:57:56;;;;;;;82.65;43.72;;;;;;;5.17;84.83;101323.47;7391373;19;20021;-57
2021/12/06 05:00:30;;;;;;;85.65;45.05;;;;;;;5.16;85.19;101320.91;7394269;19;20073;-58
2021/12/06 05:02:59;;;;;;;82.57;43.80;;;;;;;5.15;85.09;101326.97;7392363;19;20377;-57
2021/12/06 05:05:32;;;;;;;84.93;42.97;;;;;;;5.14;85.33;101330.44;7393878;19;20010;-56
2021/12/06 05:08:05;;;;;;;83.53;41.97;;;;;;;5.09;84.93;101325.31;7393554;19;20007;-57
2021/12/06 05:10:37;;;;;;;89.50;44.53;;;;;;;5.10;84.83;101337.41;7393591;19;20010;-60
2021/12/06 05:13:06;;;;;;;88.17;44.50;;;;;;;5.09;84.99;101340.03;7391299;19;20443;-60
2021/12/06 05:15:36;;;;;;;86.40;44.53;;;;;;;5.10;85.00;101336.53;7393999;19;20025;-59
2021/12/06 05:18:05;;;;;;;83.75;43.83;;;;;;;5.10;84.98;101336.53;7392499;19;20594;-59
2021/12/06 05:20:34;;;;;;;84.82;44.05;;;;;;;5.07;84.71;101334.84;7393156;19;20014;-62
2021/12/06 05:23:03;;;;;;;84.40;43.45;;;;;;;5.03;84.70;101340.97;7391992;19;20041;-59
2021/12/06 05:25:33;;;;;;;80.72;43.00;;;;;;;5.02;84.85;101331.47;7393612;19;20483;-60
2021/12/06 05:28:05;;;;;;;90.05;44.42;;;;;;;4.99;84.85;101336.69;7391511;19;20018;-62
2021/12/06 05:30:37;;;;;;;84.57;43.78;;;;;;;4.95;84.50;101337.63;7392294;19;20495;-62
2021/12/06 05:33:07;;;;;;;91.03;46.63;;;;;;;4.94;84.79;101334.16;7390429;19;20379;-61
2021/12/06 05:35:36;;;;;;;86.93;44.45;;;;;;;4.93;84.72;101339.34;7392367;19;20014;-60
2021/12/06 05:38:06;;;;;;;87.70;45.15;;;;;;;4.93;84.87;101341.94;7390564;19;20074;-61
2021/12/06 05:40:36;;;;;;;82.60;43.75;;;;;;;4.93;84.74;101345.44;7391393;19;20014;-60
2021/12/06 05:43:08;;;;;;;90.85;45.45;;;;;;;4.94;84.98;101347.16;7390100;19;20087;-58
2021/12/06 05:45:37;;;;;;;86.40;44.70;;;;;;;4.94;84.73;101356.66;7392756;19;20066;-61
2021/12/06 05:48:07;;;;;;;86.53;44.75;;;;;;;4.92;84.71;101351.50;7391611;19;20045;-61
2021/12/06 05:50:36;;;;;;;82.82;44.17;;;;;;;4.90;84.59;101350.66;7392457;19;20421;-62
2021/12/06 05:53:06;;;;;;;88.40;45.03;;;;;;;4.90;84.92;101350.66;7390491;19;20015;-59
2021/12/06 05:55:35;;;;;;;87.82;44.20;;;;;;;4.84;84.80;101340.31;7392033;19;20104;-62
2021/12/06 05:58:10;;;;;;;88.03;44.28;;;;;;;4.83;84.93;101330.84;7391283;19;20022;-58
2021/12/06 06:00:40;;;;;;;84.85;43.80;;;;;;;4.78;84.99;101335.22;7392423;19;20014;-61
2021/12/06 06:03:09;;;;;;;91.70;44.85;;;;;;;4.76;85.18;101327.44;7390383;19;20045;-61
2021/12/06 06:05:39;;;;;;;85.75;44.95;;;;;;;4.71;85.15;101330.97;7391119;19;20025;-58
2021/12/06 06:08:09;;;;;;;82.93;43.72;;;;;;;4.71;85.39;101334.41;7389531;19;20018;-57
2021/12/06 06:10:38;;;;;;;88.78;45.28;;;;;;;4.73;85.59;101335.28;7391872;19;20018;-62
2021/12/06 06:13:11;;;;;;;93.88;45.97;;;;;;;4.75;85.51;101338.69;7390029;19;20014;-61
2021/12/06 06:15:40;;;;;;;90.55;45.08;;;;;;;4.76;85.31;101345.63;7391967;19;20062;-60
2021/12/06 06:18:10;;;;;;;86.88;43.80;;;;;;;4.76;85.04;101342.19;7391898;19;20343;-59
2021/12/06 06:20:42;;;;;;;85.07;45.03;;;;;;;4.81;85.09;101343.84;7392112;19;20082;-58
2021/12/06 06:23:11;;;;;;;83.60;45.33;;;;;;;4.81;85.21;101354.22;7389267;19;20025;-59
2021/12/06 06:25:40;;;;;;;82.22;42.92;;;;;;;4.87;85.19;101357.63;7391480;19;20125;-59
2021/12/06 06:28:12;;;;;;;79.28;43.97;;;;;;;4.87;85.05;101358.47;7390625;19;20042;-59
2021/12/06 06:30:41;;;;;;;77.53;43.03;;;;;;;4.89;85.02;101354.13;7390496;19;20026;-57
2021/12/06 06:33:10;;;;;;;81.93;43.70;;;;;;;4.90;85.06;101354.97;7389215;19;20010;-61
2021/12/06 06:35:39;;;;;;;83.57;44.78;;;;;;;4.86;84.86;101351.56;7390686;19;20018;-62
2021/12/06 06:38:08;;;;;;;84.30;42.78;;;;;;;4.80;84.79;101362.88;7389975;19;20332;-62
2021/12/06 06:40:37;;;;;;;84.57;44.90;;;;;;;4.79;85.15;101365.50;7390197;19;20010;-57
2021/12/06 06:43:06;;;;;;;82.55;43.58;;;;;;;4.82;85.13;101362.88;7389155;19;20011;-62
2021/12/06 06:45:38;;;;;;;75.40;41.72;;;;;;;4.83;84.91;101368.03;7390175;19;20015;-58
2021/12/06 06:48:08;;;;;;;77.65;43.17;;;;;;;4.83;84.83;101365.44;7389501;19;20033;-60
2021/12/06 06:50:37;;;;;;;79.28;42.95;;;;;;;4.79;84.44;101368.09;7390384;19;20024;-62
2021/12/06 06:53:07;;;;;;;77.50;40.20;;;;;;;4.78;84.54;101366.38;7388327;19;20021;-59
2021/12/06 06:55:35;;;;;;;75.82;41.65;;;;;;;4.75;84.46;101366.41;7389278;19;20018;-60
2021/12/06 06:58:05;;;;;;;79.90;43.65;;;;;;;4.75;84.50;101369.84;7389310;19;20349;-62
2021/12/06 07:00:39;;;;;;;73.85;40.38;;;;;;;4.74;84.54;101372.47;7387532;19;20336;-59
2021/12/06 07:03:10;;;;;;;82.80;45.13;;;;;;;4.73;84.49;101374.22;7389459;19;20357;-62
2021/12/06 07:05:40;;;;;;;80.70;42.88;;;;;;;4.70;84.25;101373.38;7391146;19;20021;-58
2021/12/06 07:08:09;;;;;;;74.00;42.60;;;;;;;4.69;84.41;101372.53;7390522;19;20018;-62
2021/12/06 07:10:38;;;;;;;86.68;47.25;;;;;;;4.67;84.26;101377.75;7388553;19;20014;-61
2021/12/06 07:13:10;;;;;;;77.25;41.95;;;;;;;4.64;84.17;101390.75;7389300;19;20024;-62
2021/12/06 07:15:42;;;;;;;75.40;42.85;;;;;;;4.61;84.37;101387.31;7390599;19;20431;-60
2021/12/06 07:18:11;;;;;;;79.10;42.83;;;;;;;4.60;84.41;101385.59;7389697;19;20010;-61
2021/12/06 07:20:40;;;;;;;75.60;43.45;;;;;;;4.57;84.50;101390.81;7388766;19;20161;-61
2021/12/06 07:23:09;;;;;;;80.00;43.60;;;;;;;4.49;84.72;101383.97;7388776;19;20014;-61
2021/12/06 07:25:38;;;;;;;81.20;44.40;;;;;;;4.48;84.61;101392.66;7388007;19;20007;-62
2021/12/06 07:28:08;;;;;;;68.65;40.85;;;;;;;4.45;84.87;101397.84;7390073;19;20022;-60
2021/12/06 07:30:38;;;;;;;77.28;42.92;;;;;;;4.48;85.08;101394.38;7390520;19;20327;-61
2021/12/06 07:33:09;;;;;;;83.85;44.90;;;;;;;4.49;85.23;101401.28;7388509;19;20014;-56
2021/12/06 07:35:38;;;;;;;73.50;44.17;;;;;;;4.46;85.11;101406.50;7390901;19;20140;-62
2021/12/06 07:38:08;;;;;;;74.85;42.45;;;;;;;4.42;85.15;101410.00;7389497;19;20022;-57
2021/12/06 07:40:37;;;;;;;69.18;40.90;;;;;;;4.41;85.31;101418.66;7388450;19;20006;-63
2021/12/06 07:43:06;;;;;;;77.18;44.75;;;;;;;4.40;85.11;101422.13;7388299;19;20014;-63
2021/12/06 07:45:35;;;;;;;69.30;41.55;;;;;;;4.29;85.03;101420.47;7388746;19;20077;-62
2021/12/06 07:48:06;;;;;;;69.30;40.65;;;;;;;4.28;85.09;101428.28;7389517;19;20593;-62
2021/12/06 07:50:37;;;;;;;69.72;41.33;;;;;;;4.28;85.16;101423.97;7390029;19;20090;-62
2021/12/06 07:53:07;;;;;;;68.88;40.80;;;;;;;4.25;84.97;101426.56;7388141;19;20021;-63
2021/12/06 07:55:36;;;;;;;70.50;41.38;;;;;;;4.21;84.85;101426.59;7387353;19;20014;-61
2021/12/06 07:58:06;;;;;;;67.90;41.78;;;;;;;4.17;85.08;101428.38;7388777;19;20321;-62
2021/12/06 08:00:38;;;;;;;72.68;43.33;;;;;;;4.09;84.87;101415.44;7387681;19;20359;-62
2021/12/06 08:03:08;;;;;;;81.35;45.67;;;;;;;4.08;85.17;101418.06;7387906;19;20537;-60
2021/12/06 08:05:41;;;;;;;65.53;38.95;;;;;;;4.14;85.46;101418.88;7389483;19;20034;-59
2021/12/06 08:08:12;;;;;;;78.63;43.58;;;;;;;4.13;85.34;101411.97;7388548;19;20014;-57
2021/12/06 08:10:44;;;;;;;78.78;44.15;;;;;;;4.12;85.42;101417.16;7388494;19;20018;-62
2021/12/06 08:13:14;;;;;;;76.43;43.55;;;;;;;4.16;85.82;101426.66;7387771;19;20022;-61
2021/12/06 08:15:43;;;;;;;76.47;44.25;;;;;;;4.21;86.06;101417.09;7389245;19;20018;-60
2021/12/06 08:18:13;;;;;;;78.00;43.55;;;;;;;4.26;85.62;101415.31;7389258;19;20030;-56
2021/12/06 08:20:44;;;;;;;78.55;44.03;;;;;;;4.18;85.40;101405.88;7388482;19;20021;-59
2021/12/06 08:23:14;;;;;;;78.45;45.42;;;;;;;4.18;85.75;101406.72;7388363;19;20371;-60
2021/12/06 08:25:44;;;;;;;79.22;45.13;;;;;;;4.16;85.45;101404.16;7389399;19;20022;-58
2021/12/06 08:28:14;;;;;;;70.60;42.88;;;;;;;4.14;85.75;101398.13;7390225;19;20017;-61
2021/12/06 08:30:43;;;;;;;82.05;45.65;;;;;;;4.10;85.97;101396.44;7389978;19;20133;-62
2021/12/06 08:33:12;;;;;;;86.10;46.05;;;;;;;4.14;86.12;101387.75;7395768;19;20339;-58
2021/12/06 08:35:48;;;;;;;79.65;45.60;;;;;;;4.14;85.96;101390.34;7397176;19;20014;-58
2021/12/06 08:38:18;;;;;;;74.05;43.47;;;;;;;4.12;85.52;101393.81;7396697;19;20014;-61
2021/12/06 08:40:48;;;;;;;73.55;42.40;;;;;;;4.11;85.42;101390.38;7397379;19;20011;-57
2021/12/06 08:43:19;;;;;;;70.05;42.72;;;;;;;4.10;85.19;101395.59;7399089;19;20015;-58
2021/12/06 08:45:53;;;;;;;69.93;42.22;;;;;;;4.06;85.05;101399.06;7396208;19;20487;-61
2021/12/06 08:48:26;;;;;;;66.18;40.85;;;;;;;4.01;84.83;101399.09;7394708;19;20025;-60
2021/12/06 08:51:01;;;;;;;60.30;39.13;;;;;;;4.00;84.65;101407.75;7396278;19;20015;-61
2021/12/06 08:53:30;;;;;;;66.95;41.55;;;;;;;3.99;84.73;101403.44;7394261;19;20015;-59
2021/12/06 08:55:59;;;;;;;68.00;41.72;;;;;;;3.99;84.95;101413.81;7395468;19;20514;-60
2021/12/06 08:58:28;;;;;;;66.63;40.28;;;;;;;4.03;85.15;101423.28;7395776;19;20018;-57
2021/12/06 09:00:57;;;;;;;62.85;40.35;;;;;;;4.02;85.17;101429.34;7392006;19;20070;-59
2021/12/06 09:03:26;;;;;;;67.85;42.88;;;;;;;3.99;85.04;101427.63;7393460;19;20078;-61
2021/12/06 09:06:01;;;;;;;66.07;41.30;;;;;;;3.98;84.89;101430.22;7395603;19;20006;-61
2021/12/06 09:08:30;;;;;;;67.82;42.30;;;;;;;3.98;84.88;101427.63;7397070;19;20011;-59
2021/12/06 09:10:59;;;;;;;64.22;42.10;;;;;;;3.95;84.67;101428.53;7395082;19;20021;-56
2021/12/06 09:13:30;;;;;;;66.85;41.45;;;;;;;3.98;84.64;101425.03;7392812;19;20070;-56
2021/12/06 09:16:02;;;;;;;64.88;40.30;;;;;;;3.97;84.34;101418.16;7394011;19;20014;-57
2021/12/06 09:18:34;;;;;;;59.13;38.03;;;;;;;3.96;84.48;101416.44;7393683;19;20015;-60
2021/12/06 09:21:07;;;;;;;60.03;39.67;;;;;;;3.91;84.72;101428.56;7392276;19;20036;-56
2021/12/06 09:23:36;;;;;;;54.47;37.72;;;;;;;3.94;84.68;101426.81;7392168;19;20354;-61
2021/12/06 09:26:06;;;;;;;66.10;41.55;;;;;;;3.92;84.39;101435.47;7393201;19;20027;-60
2021/12/06 09:28:36;;;;;;;57.17;38.30;;;;;;;3.89;84.55;101430.31;7394976;19;20019;-60
2021/12/06 09:31:06;;;;;;;57.63;37.20;;;;;;;3.91;84.55;101442.41;7394813;19;20025;-60
2021/12/06 09:33:37;;;;;;;62.55;39.28;;;;;;;3.93;84.60;101434.59;7392007;19;20018;-60
2021/12/06 09:36:10;;;;;;;63.42;40.55;;;;;;;3.91;84.71;101445.00;7393616;19;20489;-61
2021/12/06 09:38:40;;;;;;;59.85;38.00;;;;;;;3.93;84.58;101440.63;7394131;19;20138;-62
2021/12/06 09:41:13;;;;;;;54.80;35.67;;;;;;;3.94;84.61;101444.09;7389929;19;20010;-60
2021/12/06 09:43:43;;;;;;;59.47;36.65;;;;;;;3.93;84.95;101448.41;7391373;19;20719;-60
2021/12/06 09:46:14;;;;;;;65.50;38.40;;;;;;;3.93;85.07;101448.41;7393413;19;20631;-62
2021/12/06 09:48:45;;;;;;;71.65;40.85;;;;;;;3.89;84.97;101449.31;7393819;19;20024;-60
2021/12/06 09:51:21;;;;;;;64.28;40.15;;;;;;;3.86;85.17;101440.69;7393968;19;20490;-62
2021/12/06 09:53:52;;;;;;;60.42;39.13;;;;;;;3.88;85.20;101439.78;7391459;19;20099;-62
2021/12/06 09:56:24;;;;;;;65.90;42.17;;;;;;;3.88;85.36;101437.19;7393418;19;20025;-57
2021/12/06 09:58:54;;;;;;;;;;;;;;;3.92;85.48;101433.72;7394741;19;20018;-62
2021/12/06 10:01:27;;;;;;;65.43;40.17;;;;;;;3.95;85.46;101432.84;7391118;19;19921;-61
2021/12/06 10:03:58;;;;;;;72.10;43.08;;;;;;;3.99;85.67;101426.78;7393343;19;20352;-62
2021/12/06 10:06:33;;;;;;;65.40;41.88;;;;;;;3.97;85.56;101425.94;7392542;19;20026;-61
2021/12/06 10:09:03;;;;;;;68.93;41.60;;;;;;;3.95;85.75;101425.94;7393662;19;20371;-60
2021/12/06 10:11:32;;;;;;;66.25;41.65;;;;;;;3.95;85.59;101430.25;7389674;19;20356;-59
2021/12/06 10:14:02;;;;;;;71.55;43.20;;;;;;;3.92;85.68;101427.69;7391845;19;20022;-61
2021/12/06 10:16:32;;;;;;;72.40;43.58;;;;;;;3.89;85.66;101425.97;7391873;19;20006;-62
2021/12/06 10:19:01;;;;;;;71.72;44.22;;;;;;;3.93;86.01;101416.47;7393419;19;20122;-62
2021/12/06 10:21:33;;;;;;;84.05;46.97;;;;;;;3.97;85.95;101412.97;7390582;19;20070;-61
2021/12/06 10:24:02;;;;;;;66.63;40.75;;;;;;;3.95;85.78;101418.19;7396914;19;20028;-62
2021/12/06 10:26:33;;;;;;;75.55;44.50;;;;;;;3.95;86.01;101415.56;7399189;19;20032;-59
2021/12/06 10:29:19;;;;;;;68.15;41.42;;;;;;;3.96;86.00;101403.47;7399759;19;20018;-62
2021/12/06 10:31:51;;;;;;;71.97;41.55;;;;;;;3.99;85.90;101395.66;7400397;19;20037;-61
2021/12/06 10:34:24;;;;;;;76.22;41.88;;;;;;;4.01;86.04;101385.28;7397135;19;20009;-60
2021/12/06 10:36:57;;;;;;;71.85;42.75;;;;;;;4.05;86.38;101384.38;7393135;19;20018;-59
2021/12/06 10:39:27;;;;;;;66.53;40.95;;;;;;;4.05;86.38;101368.81;7392606;19;20074;-57
2021/12/06 10:41:56;;;;;;;72.18;43.17;;;;;;;4.05;86.52;101369.66;7391271;19;20010;-59
2021/12/06 10:44:27;;;;;;;69.28;42.40;;;;;;;4.08;86.32;101361.00;7392719;19;20017;-59
2021/12/06 10:46:56;;;;;;;72.65;44.03;;;;;;;4.09;86.44;101363.59;7391746;19;20033;-59
2021/12/06 10:49:27;;;;;;;71.82;43.70;;;;;;;4.12;86.15;101363.56;7389947;19;20023;-59
2021/12/06 10:51:59;;;;;;;76.32;46.15;;;;;;;4.09;86.37;101355.81;7392003;19;20022;-58
2021/12/06 10:54:35;;;;;;;75.97;44.83;;;;;;;4.12;86.16;101347.16;7391506;19;20066;-60
2021/12/06 10:57:08;;;;;;;77.55;46.53;;;;;;;4.15;86.53;101342.81;7391460;19;20479;-61
2021/12/06 10:59:40;;;;;;;80.15;45.45;;;;;;;4.22;86.63;101337.56;7391725;19;20013;-60
2021/12/06 11:02:12;;;;;;;76.82;47.03;;;;;;;4.26;86.57;101331.47;7391351;19;20069;-60
2021/12/06 11:04:42;;;;;;;77.45;47.35;;;;;;;4.29;86.45;101324.50;7390134;19;20014;-58
2021/12/06 11:07:14;;;;;;;74.68;46.35;;;;;;;4.35;86.41;101322.72;7390269;19;20021;-56
2021/12/06 11:09:47;;;;;;;76.85;47.55;;;;;;;4.38;86.40;101323.53;7391942;19;20018;-62
2021/12/06 11:12:21;;;;;;;70.65;44.35;;;;;;;4.42;86.05;101316.59;7390223;19;20022;-60
2021/12/06 11:14:51;;;;;;;69.80;44.85;;;;;;;4.44;86.13;101309.63;7391289;19;20025;-59
2021/12/06 11:17:23;;;;;;;68.97;44.42;;;;;;;4.48;85.91;101309.63;7391176;19;20348;-59
2021/12/06 11:19:54;;;;;;;69.57;43.55;;;;;;;4.48;85.86;101314.81;7391679;19;20026;-56
2021/12/06 11:22:27;;;;;;;64.50;41.93;;;;;;;4.49;85.61;101310.47;7389969;19;20022;-61
2021/12/06 11:24:57;;;;;;;67.25;44.03;;;;;;;4.41;85.31;101297.56;7392099;19;20335;-61
2021/12/06 11:27:28;;;;;;;62.53;40.30;;;;;;;4.38;85.16;101295.00;7388714;19;20110;-61
2021/12/06 11:30:02;;;;;;;64.45;40.78;;;;;;;4.32;85.29;101297.66;7391762;19;20013;-60
2021/12/06 11:32:33;;;;;;;68.30;42.50;;;;;;;4.34;85.30;101303.69;7390235;19;20015;-59
2021/12/06 11:35:06;;;;;;;67.15;41.55;;;;;;;4.33;85.28;101297.66;7391242;19;20010;-59
2021/12/06 11:37:49;;;;;;;69.80;41.17;;;;;;;4.37;85.05;101295.00;7390583;19;20011;-58
2021/12/06 11:40:23;;;;;;;63.17;39.28;;;;;;;4.33;85.01;101284.69;7390003;19;20043;-61
2021/12/06 11:42:56;;;;;;;67.07;41.17;;;;;;;4.33;85.15;101289.00;7389435;19;20041;-61